createdAt,value
2019-03-17T00:02:07.067Z,89.99
2019-03-17T00:04:37.548Z,89.55
2019-03-17T00:07:07.582Z,89.68
2019-03-17T00:09:36.322Z,89.68
2019-03-17T00:12:05.798Z,89.18
2019-03-17T00:14:35.703Z,89.43
2019-03-17T00:17:05.260Z,89.30
2019-03-17T00:19:35.072Z,89.41
2019-03-17T00:22:07.345Z,89.48
2019-03-17T00:24:44.708Z,89.44
2019-03-17T00:27:14.483Z,89.62
2019-03-17T00:29:43.348Z,89.52
2019-03-17T00:32:12.768Z,89.57
2019-03-17T00:34:44.637Z,89.50
2019-03-17T00:37:13.919Z,89.63
2019-03-17T00:39:42.795Z,89.81
2019-03-17T00:42:11.694Z,89.74
2019-03-17T00:44:40.300Z,89.78
2019-03-17T00:47:10.758Z,89.42
2019-03-17T00:49:39.250Z,89.33
2019-03-17T00:52:07.833Z,89.01
2019-03-17T00:54:36.426Z,88.87
2019-03-17T00:57:05.090Z,88.94
2019-03-17T00:59:33.689Z,88.77
2019-03-17T01:02:02.395Z,88.54
2019-03-17T01:04:31.090Z,88.48
2019-03-17T01:06:59.707Z,88.65
2019-03-17T01:09:28.339Z,88.75
2019-03-17T01:11:56.932Z,88.91
2019-03-17T01:14:25.544Z,88.43
2019-03-17T01:16:54.171Z,88.64
2019-03-17T01:19:22.765Z,88.85
2019-03-17T01:21:51.371Z,88.78
2019-03-17T01:24:19.985Z,88.90
2019-03-17T01:26:48.600Z,88.87
2019-03-17T01:29:17.219Z,88.45
2019-03-17T01:31:45.845Z,88.42
2019-03-17T01:34:14.434Z,88.60
2019-03-17T01:36:43.041Z,87.99
2019-03-17T01:39:11.634Z,87.22
2019-03-17T01:41:40.236Z,87.28
2019-03-17T01:44:08.834Z,86.65
2019-03-17T01:46:37.452Z,86.71
2019-03-17T01:49:06.062Z,85.92
2019-03-17T01:51:34.747Z,85.98
2019-03-17T01:54:03.336Z,85.38
2019-03-17T01:56:31.944Z,85.37
2019-03-17T01:59:00.617Z,85.05
2019-03-17T02:01:29.228Z,84.72
2019-03-17T02:03:57.945Z,84.07
2019-03-17T02:06:26.562Z,84.30
2019-03-17T02:08:55.155Z,83.74
2019-03-17T02:11:23.826Z,83.60
2019-03-17T02:13:52.430Z,83.07
2019-03-17T02:16:21.050Z,82.60
2019-03-17T02:18:49.682Z,82.63
2019-03-17T02:21:18.291Z,82.79
2019-03-17T02:23:46.924Z,82.47
2019-03-17T02:26:15.524Z,81.86
2019-03-17T02:28:44.120Z,81.85
2019-03-17T02:31:12.716Z,81.83
2019-03-17T02:33:41.345Z,82.17
2019-03-17T02:36:09.950Z,82.06
2019-03-17T02:38:38.559Z,80.76
2019-03-17T02:41:07.620Z,81.16
2019-03-17T02:43:36.295Z,81.12
2019-03-17T02:46:04.977Z,81.08
2019-03-17T02:48:33.727Z,80.37
2019-03-17T02:51:02.347Z,80.93
2019-03-17T02:53:30.965Z,80.63
2019-03-17T02:55:59.594Z,81.03
2019-03-17T02:58:28.215Z,81.26
2019-03-17T03:00:56.842Z,80.92
2019-03-17T03:03:25.438Z,80.76
2019-03-17T03:05:55.622Z,80.88
2019-03-17T03:08:24.470Z,81.07
2019-03-17T03:10:53.061Z,81.10
2019-03-17T03:13:21.705Z,81.39
2019-03-17T03:15:50.294Z,81.22
2019-03-17T03:18:18.915Z,81.53
2019-03-17T03:20:47.542Z,81.63
2019-03-17T03:23:16.115Z,81.54
2019-03-17T03:25:44.730Z,81.53
2019-03-17T03:28:13.320Z,81.84
2019-03-17T03:30:41.941Z,81.61
2019-03-17T03:33:10.560Z,81.72
2019-03-17T03:35:39.165Z,81.13
2019-03-17T03:38:07.745Z,81.68
2019-03-17T03:40:36.417Z,81.93
2019-03-17T03:43:05.905Z,82.35
2019-03-17T03:45:34.501Z,82.25
2019-03-17T03:48:03.125Z,82.60
2019-03-17T03:50:31.721Z,83.27
2019-03-17T03:53:00.363Z,82.87
2019-03-17T03:55:28.971Z,82.54
2019-03-17T03:57:57.576Z,83.10
2019-03-17T04:00:26.208Z,83.15
2019-03-17T04:02:55.049Z,83.18
2019-03-17T04:05:23.801Z,82.81
2019-03-17T04:07:52.397Z,83.45
2019-03-17T04:10:21.017Z,82.83
2019-03-17T04:12:49.645Z,83.31
2019-03-17T04:15:18.274Z,83.06
2019-03-17T04:17:46.882Z,83.14
2019-03-17T04:20:15.505Z,82.97
2019-03-17T04:22:44.132Z,83.01
2019-03-17T04:25:16.147Z,83.35
2019-03-17T04:27:44.760Z,83.47
2019-03-17T04:30:13.467Z,83.24
2019-03-17T04:32:42.114Z,83.17
2019-03-17T04:35:10.775Z,82.12
2019-03-17T04:37:39.411Z,82.52
2019-03-17T04:40:08.244Z,83.21
2019-03-17T04:42:36.958Z,83.19
2019-03-17T04:45:05.883Z,83.40
2019-03-17T04:47:34.498Z,83.57
2019-03-17T04:50:03.180Z,83.12
2019-03-17T04:52:31.761Z,83.25
2019-03-17T04:55:00.401Z,82.62
2019-03-17T04:57:29.009Z,82.58
2019-03-17T04:59:57.589Z,83.13
2019-03-17T05:02:26.204Z,82.98
2019-03-17T05:04:54.809Z,82.81
2019-03-17T05:07:23.409Z,83.22
2019-03-17T05:09:51.996Z,83.49
2019-03-17T05:12:20.606Z,83.09
2019-03-17T05:14:49.221Z,82.60
2019-03-17T05:17:17.844Z,82.40
2019-03-17T05:19:46.431Z,82.56
2019-03-17T05:22:15.058Z,82.60
2019-03-17T05:24:43.674Z,82.18
2019-03-17T05:27:12.263Z,82.26
2019-03-17T05:29:40.947Z,82.15
2019-03-17T05:32:09.581Z,82.08
2019-03-17T05:34:38.254Z,81.54
2019-03-17T05:37:07.129Z,81.72
2019-03-17T05:39:35.868Z,81.23
2019-03-17T05:42:04.471Z,81.38
2019-03-17T05:44:33.104Z,80.98
2019-03-17T05:47:01.765Z,81.00
2019-03-17T05:49:30.408Z,81.16
2019-03-17T05:51:59.016Z,81.09
2019-03-17T05:54:27.637Z,81.41
2019-03-17T05:56:56.264Z,80.65
2019-03-17T05:59:24.867Z,80.12
2019-03-17T06:01:53.464Z,79.78
2019-03-17T06:04:22.145Z,79.75
2019-03-17T06:06:50.726Z,80.58
2019-03-17T06:09:19.356Z,79.50
2019-03-17T06:11:47.963Z,79.42
2019-03-17T06:14:16.598Z,79.28
2019-03-17T06:16:45.217Z,79.34
2019-03-17T06:19:13.843Z,79.06
2019-03-17T06:21:42.450Z,78.92
2019-03-17T06:24:11.136Z,78.98
2019-03-17T06:26:39.787Z,78.38
2019-03-17T06:29:08.392Z,77.58
2019-03-17T06:31:37.012Z,78.07
2019-03-17T06:34:05.628Z,78.17
2019-03-17T06:36:34.221Z,78.14
2019-03-17T06:39:03.142Z,78.26
2019-03-17T06:41:31.792Z,78.05
2019-03-17T06:44:00.422Z,78.69
2019-03-17T06:46:29.027Z,78.39
2019-03-17T06:48:57.722Z,78.24
2019-03-17T06:51:26.361Z,77.86
2019-03-17T06:53:56.690Z,78.31
2019-03-17T06:56:25.440Z,78.29
2019-03-17T06:58:54.068Z,77.99
2019-03-17T07:01:22.663Z,78.38
2019-03-17T07:03:51.300Z,77.38
2019-03-17T07:06:19.883Z,77.70
2019-03-17T07:08:48.539Z,77.06
2019-03-17T07:11:17.152Z,76.39
2019-03-17T07:13:45.788Z,76.23
2019-03-17T07:16:14.431Z,75.97
2019-03-17T07:18:43.124Z,75.86
2019-03-17T07:21:11.746Z,76.10
2019-03-17T07:23:40.348Z,76.27
2019-03-17T07:26:08.942Z,75.80
2019-03-17T07:28:37.576Z,75.24
2019-03-17T07:31:06.175Z,76.04
2019-03-17T07:33:34.804Z,76.46
2019-03-17T07:36:03.436Z,76.31
2019-03-17T07:38:32.119Z,75.88
2019-03-17T07:41:00.801Z,75.94
2019-03-17T07:43:29.480Z,76.43
2019-03-17T07:46:00.032Z,76.49
2019-03-17T07:48:31.270Z,76.84
2019-03-17T07:51:00.439Z,77.46
2019-03-17T07:53:29.635Z,78.08
2019-03-17T07:55:59.418Z,78.86
2019-03-17T07:58:30.158Z,80.36
2019-03-17T08:01:02.373Z,80.27
2019-03-17T08:03:33.549Z,81.35
2019-03-17T08:06:02.369Z,80.99
2019-03-17T08:08:32.830Z,81.58
2019-03-17T08:11:02.796Z,81.66
2019-03-17T08:13:34.724Z,81.25
2019-03-17T08:16:03.855Z,81.16
2019-03-17T08:18:33.880Z,80.95
2019-03-17T08:21:03.165Z,81.57
2019-03-17T08:23:44.857Z,81.28
2019-03-17T08:26:17.905Z,81.95
2019-03-17T08:28:49.373Z,82.91
2019-03-17T08:31:21.190Z,84.46
2019-03-17T08:33:56.729Z,85.00
2019-03-17T08:36:29.627Z,85.49
2019-03-17T08:38:58.764Z,85.81
2019-03-17T08:41:29.792Z,86.10
2019-03-17T08:44:04.900Z,86.46
2019-03-17T08:46:33.351Z,86.49
2019-03-17T08:49:01.958Z,87.45
2019-03-17T08:51:30.704Z,87.13
2019-03-17T08:53:59.257Z,87.29
2019-03-17T08:56:27.901Z,87.63
2019-03-17T08:58:56.517Z,89.12
2019-03-17T09:01:25.190Z,88.87
2019-03-17T09:03:53.831Z,90.26
2019-03-17T09:06:22.501Z,90.71
2019-03-17T09:08:51.100Z,90.66
2019-03-17T09:11:19.795Z,91.10
2019-03-17T09:13:48.400Z,89.97
2019-03-17T09:16:17.059Z,89.89
2019-03-17T09:18:45.687Z,89.93
2019-03-17T09:21:14.300Z,88.45
2019-03-17T09:23:42.922Z,88.95
2019-03-17T09:26:11.517Z,88.47
2019-03-17T09:28:40.108Z,86.95
2019-03-17T09:31:08.736Z,87.51
2019-03-17T09:33:37.344Z,86.42
2019-03-17T09:36:06.019Z,86.57
2019-03-17T09:38:46.466Z,87.04
2019-03-17T09:41:05.163Z,87.71
2019-03-17T09:43:33.792Z,87.70
2019-03-17T09:46:02.395Z,87.39
2019-03-17T09:48:31.036Z,88.54
2019-03-17T09:50:59.689Z,89.04
2019-03-17T09:53:28.696Z,89.84
2019-03-17T09:55:57.519Z,91.35
2019-03-17T09:58:26.166Z,92.97
2019-03-17T10:00:54.833Z,93.54
2019-03-17T10:03:23.478Z,94.18
2019-03-17T10:05:52.111Z,95.45
2019-03-17T10:08:20.774Z,96.65
2019-03-17T10:10:49.391Z,97.02
2019-03-17T10:13:18.022Z,98.08
2019-03-17T10:15:49.659Z,98.47
2019-03-17T10:18:18.308Z,97.98
2019-03-17T10:20:46.913Z,98.55
2019-03-17T10:23:15.544Z,98.68
2019-03-17T10:25:44.338Z,99.38
2019-03-17T10:28:12.985Z,99.12
2019-03-17T10:30:41.646Z,98.55
2019-03-17T10:33:10.272Z,99.07
2019-03-17T10:35:38.861Z,99.21
2019-03-17T10:38:07.533Z,99.63
2019-03-17T10:40:36.165Z,98.80
2019-03-17T10:43:05.110Z,98.40
2019-03-17T10:45:33.729Z,99.32
2019-03-17T10:48:02.481Z,99.67
2019-03-17T10:50:31.120Z,100.00
2019-03-17T10:52:59.861Z,100.00
2019-03-17T10:55:28.597Z,100.00
2019-03-17T10:57:57.265Z,100.00
2019-03-17T11:00:25.946Z,100.00
2019-03-17T11:02:54.676Z,100.00
2019-03-17T11:05:23.338Z,100.00
2019-03-17T11:07:51.985Z,100.00
2019-03-17T11:10:20.757Z,100.00
2019-03-17T11:12:49.395Z,100.00
2019-03-17T11:15:18.104Z,100.00
2019-03-17T11:17:46.792Z,100.00
2019-03-17T11:20:15.497Z,100.00
2019-03-17T11:22:44.180Z,100.00
2019-03-17T11:25:12.890Z,100.00
2019-03-17T11:27:41.513Z,100.00
2019-03-17T11:30:10.935Z,100.00
2019-03-17T11:32:39.583Z,100.00
2019-03-17T11:35:08.335Z,100.00
2019-03-17T11:37:36.968Z,100.00
2019-03-17T11:40:06.311Z,96.40
2019-03-17T11:42:34.965Z,96.89
2019-03-17T11:45:03.866Z,98.29
2019-03-17T11:47:32.603Z,97.55
2019-03-17T11:50:01.253Z,98.37
2019-03-17T11:52:29.923Z,98.35
2019-03-17T11:54:58.552Z,98.10
2019-03-17T11:57:27.207Z,98.20
2019-03-17T11:59:55.808Z,99.96
2019-03-17T12:02:26.846Z,99.63
2019-03-17T12:04:54.750Z,100.00
2019-03-17T12:07:23.447Z,100.00
2019-03-17T12:09:52.065Z,100.00
2019-03-17T12:12:20.678Z,100.00
2019-03-17T12:14:49.348Z,97.89
2019-03-17T12:17:18.019Z,98.66
2019-03-17T12:19:46.617Z,96.42
2019-03-17T12:22:15.219Z,89.01
2019-03-17T12:24:43.893Z,93.64
2019-03-17T12:27:12.496Z,90.67
2019-03-17T12:29:41.121Z,91.16
2019-03-17T12:32:09.727Z,90.83
2019-03-17T12:34:38.339Z,94.00
2019-03-17T12:37:06.961Z,95.32
2019-03-17T12:39:35.623Z,94.66
2019-03-17T12:42:04.259Z,92.56
2019-03-17T12:44:32.872Z,94.21
2019-03-17T12:47:01.522Z,92.21
2019-03-17T12:49:30.260Z,91.01
2019-03-17T12:51:58.957Z,88.89
2019-03-17T12:54:27.681Z,85.90
2019-03-17T12:56:56.271Z,85.82
2019-03-17T12:59:24.904Z,88.94
2019-03-17T13:01:53.593Z,91.02
2019-03-17T13:04:22.312Z,90.49
2019-03-17T13:06:50.930Z,88.05
2019-03-17T13:09:19.594Z,91.59
2019-03-17T13:11:48.191Z,90.65
2019-03-17T13:14:16.912Z,90.94
2019-03-17T13:16:45.544Z,89.66
2019-03-17T13:19:14.159Z,89.80
2019-03-17T13:21:42.767Z,90.20
2019-03-17T13:24:11.405Z,88.23
2019-03-17T13:26:40.009Z,89.21
2019-03-17T13:29:08.662Z,87.37
2019-03-17T13:31:37.291Z,88.19
2019-03-17T13:34:05.930Z,88.10
2019-03-17T13:36:34.562Z,89.30
2019-03-17T13:39:04.296Z,89.13
2019-03-17T13:41:32.926Z,88.34
2019-03-17T13:44:01.547Z,88.51
2019-03-17T13:46:30.164Z,88.00
2019-03-17T13:48:58.787Z,87.57
2019-03-17T13:51:27.407Z,87.03
2019-03-17T13:53:56.040Z,86.65
2019-03-17T13:56:24.690Z,87.02
2019-03-17T13:58:53.323Z,88.08
2019-03-17T14:01:21.985Z,87.25
2019-03-17T14:03:50.812Z,88.09
2019-03-17T14:06:19.424Z,86.72
2019-03-17T14:08:48.005Z,87.47
2019-03-17T14:11:16.642Z,85.12
2019-03-17T14:13:45.248Z,86.18
2019-03-17T14:16:15.733Z,84.38
2019-03-17T14:18:44.195Z,83.69
2019-03-17T14:21:12.845Z,81.76
2019-03-17T14:23:41.495Z,84.87
2019-03-17T14:26:10.218Z,84.32
2019-03-17T14:28:38.814Z,86.94
2019-03-17T14:31:16.424Z,86.00
2019-03-17T14:33:45.711Z,85.61
2019-03-17T14:36:14.580Z,82.76
2019-03-17T14:38:47.246Z,83.29
2019-03-17T14:41:16.452Z,83.86
2019-03-17T14:43:46.969Z,83.19
2019-03-17T14:46:16.431Z,82.72
2019-03-17T14:48:47.063Z,83.59
2019-03-17T14:51:18.615Z,78.49
2019-03-17T14:53:49.137Z,78.32
2019-03-17T14:56:18.943Z,77.71
2019-03-17T14:58:56.461Z,78.39
2019-03-17T15:01:36.671Z,79.75
2019-03-17T15:04:10.626Z,78.00
2019-03-17T15:06:40.407Z,78.15
2019-03-17T15:09:09.073Z,78.23
2019-03-17T15:11:41.186Z,78.94
2019-03-17T15:14:12.577Z,76.74
2019-03-17T15:17:08.710Z,79.21
2019-03-17T15:19:43.858Z,79.78
2019-03-17T15:22:14.788Z,78.76
2019-03-17T15:24:45.689Z,77.63
2019-03-17T15:27:15.783Z,77.83
2019-03-17T15:29:44.949Z,77.03
2019-03-17T15:32:13.879Z,78.72
2019-03-17T15:34:42.878Z,77.37
2019-03-17T15:37:11.637Z,78.29
2019-03-17T15:39:41.034Z,79.29
2019-03-17T15:42:12.472Z,80.34
2019-03-17T15:44:41.839Z,80.89
2019-03-17T15:47:11.412Z,79.57
2019-03-17T15:49:48.282Z,80.84
2019-03-17T15:52:17.188Z,81.15
2019-03-17T15:54:46.221Z,82.03
2019-03-17T15:57:15.941Z,81.81
2019-03-17T15:59:48.632Z,81.25
2019-03-17T16:02:21.005Z,81.34
2019-03-17T16:04:53.060Z,80.88
2019-03-17T16:07:21.988Z,82.07
2019-03-17T16:09:58.439Z,81.92
2019-03-17T16:12:30.276Z,78.12
2019-03-17T16:15:12.199Z,76.93
2019-03-17T16:17:41.239Z,75.94
2019-03-17T16:20:11.872Z,75.63
2019-03-17T16:22:40.681Z,77.04
2019-03-17T16:25:09.925Z,77.21
2019-03-17T16:27:38.652Z,82.37
2019-03-17T16:30:10.762Z,85.62
2019-03-17T16:32:39.572Z,84.64
2019-03-17T16:35:08.404Z,86.34
2019-03-17T16:37:37.172Z,85.53
2019-03-17T16:40:07.525Z,85.64
2019-03-17T16:45:11.319Z,87.89
2019-03-17T16:47:39.999Z,87.89
2019-03-17T16:50:10.628Z,85.13
2019-03-17T16:52:39.545Z,85.86
2019-03-17T16:55:11.290Z,87.53
2019-03-17T16:57:38.838Z,85.42
2019-03-17T17:00:09.360Z,85.16
2019-03-17T17:02:38.307Z,84.61
2019-03-17T17:05:07.968Z,85.14
2019-03-17T17:07:36.707Z,84.53
2019-03-17T17:10:08.583Z,81.08
2019-03-17T17:12:37.342Z,80.19
2019-03-17T17:15:08.938Z,80.22
2019-03-17T17:17:37.973Z,80.91
2019-03-17T17:20:08.283Z,80.72
2019-03-17T17:22:37.032Z,81.62
2019-03-17T17:25:17.204Z,81.04
2019-03-17T17:27:45.996Z,79.12
2019-03-17T17:30:16.944Z,80.97
2019-03-17T17:32:45.744Z,80.10
2019-03-17T17:35:14.816Z,80.72
2019-03-17T17:37:44.191Z,80.90
2019-03-17T17:40:14.510Z,80.56
2019-03-17T17:42:43.319Z,81.19
2019-03-17T17:45:13.907Z,82.17
2019-03-17T17:47:43.010Z,80.60
2019-03-17T17:50:13.213Z,80.93
2019-03-17T17:52:42.496Z,81.10
2019-03-17T17:55:34.411Z,82.45
2019-03-17T17:58:06.410Z,84.16
2019-03-17T18:00:41.426Z,82.59
2019-03-17T18:03:11.305Z,82.83
2019-03-17T18:05:40.580Z,83.85
2019-03-17T18:08:09.322Z,83.06
2019-03-17T18:10:39.419Z,83.12
2019-03-17T18:13:11.992Z,82.29
2019-03-17T18:15:43.667Z,82.81
2019-03-17T18:18:17.026Z,82.82
2019-03-17T18:21:07.472Z,82.31
2019-03-17T18:23:36.605Z,81.13
2019-03-17T18:26:15.771Z,82.30
2019-03-17T18:28:47.227Z,82.15
2019-03-17T18:31:16.221Z,82.05
2019-03-17T18:33:46.210Z,83.32
2019-03-17T18:36:16.564Z,82.23
2019-03-17T18:38:45.713Z,82.39
2019-03-17T18:41:16.795Z,83.07
2019-03-17T18:43:47.208Z,83.19
2019-03-17T18:46:37.047Z,83.29
2019-03-17T18:49:06.530Z,83.11
2019-03-17T18:51:36.863Z,83.45
2019-03-17T18:54:06.625Z,82.72
2019-03-17T18:57:01.215Z,83.18
2019-03-17T18:59:31.084Z,84.08
2019-03-17T19:02:00.818Z,83.99
2019-03-17T19:04:31.173Z,83.58
2019-03-17T19:07:03.212Z,82.26
2019-03-17T19:09:35.822Z,82.80
2019-03-17T19:12:06.714Z,80.95
2019-03-17T19:14:37.281Z,81.44
2019-03-17T19:17:07.937Z,81.89
2019-03-17T19:19:42.804Z,82.21
2019-03-17T19:22:17.215Z,83.56
2019-03-17T19:24:46.215Z,84.08
2019-03-17T19:27:19.102Z,83.09
2019-03-17T19:29:54.422Z,83.50
2019-03-17T19:32:29.512Z,83.27
2019-03-17T19:35:00.042Z,83.83
2019-03-17T19:37:33.889Z,84.57
2019-03-17T19:40:07.739Z,85.28
2019-03-17T19:42:57.526Z,84.41
2019-03-17T19:45:17.483Z,84.96
2019-03-17T19:47:50.706Z,84.14
2019-03-17T19:50:20.017Z,85.21
2019-03-17T19:52:49.861Z,85.04
2019-03-17T19:55:24.553Z,85.43
2019-03-17T19:57:55.515Z,86.45
2019-03-17T20:00:27.721Z,85.57
2019-03-17T20:02:57.604Z,86.23
2019-03-17T20:05:28.617Z,86.97
2019-03-17T20:08:08.569Z,86.30
2019-03-17T20:10:41.155Z,86.48
2019-03-17T20:13:22.206Z,86.69
2019-03-17T20:15:53.399Z,86.68
2019-03-17T20:18:24.987Z,84.10
2019-03-17T20:20:57.283Z,82.35
2019-03-17T20:23:27.336Z,82.90
2019-03-17T20:25:56.220Z,82.74
2019-03-17T20:28:26.915Z,83.78
2019-03-17T20:30:58.357Z,83.80
2019-03-17T20:33:30.328Z,83.52
2019-03-17T20:36:01.157Z,85.70
2019-03-17T20:38:31.123Z,89.43
2019-03-17T20:41:00.937Z,91.51
2019-03-17T20:43:35.395Z,92.44
2019-03-17T20:46:05.408Z,94.63
2019-03-17T20:48:35.837Z,97.25
2019-03-17T20:51:14.271Z,98.84
2019-03-17T20:53:44.814Z,99.88
2019-03-17T20:56:19.042Z,100.00
2019-03-17T20:58:53.585Z,100.00
2019-03-17T21:01:24.067Z,100.00
2019-03-17T21:03:53.412Z,100.00
2019-03-17T21:06:26.818Z,100.00
2019-03-17T21:08:56.586Z,100.00
2019-03-17T21:11:26.599Z,100.00
2019-03-17T21:13:56.065Z,100.00
2019-03-17T21:16:26.290Z,100.00
2019-03-17T21:19:07.702Z,100.00
2019-03-17T21:21:41.653Z,99.28
2019-03-17T21:24:11.190Z,97.22
2019-03-17T21:26:42.425Z,98.94
2019-03-17T21:29:12.844Z,98.10
2019-03-17T21:31:42.811Z,99.93
2019-03-17T21:34:19.990Z,100.00
2019-03-17T21:36:49.111Z,100.00
2019-03-17T21:39:21.615Z,100.00
2019-03-17T21:41:51.883Z,98.94
2019-03-17T21:44:28.828Z,100.00
2019-03-17T21:47:15.504Z,100.00
2019-03-17T21:49:46.113Z,100.00
2019-03-17T21:52:18.755Z,100.00
2019-03-17T21:54:48.403Z,100.00
2019-03-17T21:57:28.685Z,100.00
2019-03-17T22:00:00.704Z,100.00
2019-03-17T22:02:31.802Z,100.00
2019-03-17T22:05:04.669Z,100.00
2019-03-17T22:07:34.842Z,100.00
2019-03-17T22:10:22.960Z,100.00
2019-03-17T22:12:54.941Z,100.00
2019-03-17T22:15:26.535Z,100.00
2019-03-17T22:17:55.648Z,100.00
2019-03-17T22:20:26.892Z,100.00
2019-03-17T22:22:57.118Z,100.00
2019-03-17T22:25:30.519Z,100.00
2019-03-17T22:28:08.210Z,100.00
2019-03-17T22:30:34.297Z,100.00
2019-03-17T22:33:15.854Z,100.00
2019-03-17T22:35:47.812Z,100.00
2019-03-17T22:38:17.856Z,100.00
2019-03-17T22:40:50.450Z,100.00
2019-03-17T22:43:22.581Z,100.00
2019-03-17T22:45:56.058Z,100.00
2019-03-17T22:48:44.492Z,100.00
2019-03-17T22:51:15.132Z,100.00
2019-03-17T22:53:44.789Z,100.00
2019-03-17T22:56:21.012Z,100.00
2019-03-17T22:58:52.560Z,100.00
2019-03-17T23:01:24.431Z,100.00
2019-03-17T23:03:54.038Z,100.00
2019-03-17T23:06:24.327Z,100.00
2019-03-17T23:08:55.547Z,100.00
2019-03-17T23:11:27.365Z,100.00
2019-03-17T23:13:59.527Z,100.00
2019-03-17T23:16:29.337Z,100.00
2019-03-17T23:18:59.214Z,100.00
2019-03-17T23:21:28.012Z,100.00
2019-03-17T23:23:57.744Z,100.00
2019-03-17T23:26:26.398Z,100.00
2019-03-17T23:28:55.154Z,100.00
2019-03-17T23:31:26.690Z,100.00
2019-03-17T23:34:12.718Z,100.00
2019-03-17T23:36:49.218Z,100.00
2019-03-17T23:39:18.281Z,100.00
2019-03-17T23:41:59.932Z,100.00
2019-03-17T23:44:48.527Z,100.00
2019-03-17T23:47:14.694Z,100.00
2019-03-17T23:49:48.092Z,100.00
2019-03-17T23:52:21.359Z,100.00
2019-03-17T23:54:51.429Z,100.00
2019-03-17T23:57:21.780Z,100.00
2019-03-17T23:59:51.266Z,100.00
